sensor_id;sensor_type;location;lat;lon;timestamp;P1;durP1;ratioP1;P2;durP2;ratioP2
77012;SDS011;67260;53.130;17.982;2024-02-26T00:24:59;67.90;;;27.90;;
77012;SDS011;67260;53.130;17.982;2024-02-26T00:27:39;67.80;;;27.70;;
77012;SDS011;67260;53.130;17.982;2024-02-26T00:30:43;75.80;;;33.00;;
77012;SDS011;67260;53.130;17.982;2024-02-26T00:33:40;76.90;;;32.60;;
77012;SDS011;67260;53.130;17.982;2024-02-26T00:37:25;72.00;;;29.60;;
77012;SDS011;67260;53.130;17.982;2024-02-26T00:41:17;71.80;;;26.90;;
77012;SDS011;67260;53.130;17.982;2024-02-26T00:45:03;74.30;;;29.80;;
77012;SDS011;67260;53.130;17.982;2024-02-26T00:56:19;63.20;;;27.60;;
77012;SDS011;67260;53.130;17.982;2024-02-26T00:59:00;55.90;;;23.60;;
77012;SDS011;67260;53.130;17.982;2024-02-26T01:11:50;65.60;;;25.80;;
77012;SDS011;67260;53.130;17.982;2024-02-26T01:14:37;62.70;;;26.20;;
77012;SDS011;67260;53.130;17.982;2024-02-26T01:19:01;57.90;;;22.50;;
77012;SDS011;67260;53.130;17.982;2024-02-26T01:22:09;56.00;;;22.90;;
77012;SDS011;67260;53.130;17.982;2024-02-26T01:25:42;63.00;;;24.70;;
77012;SDS011;67260;53.130;17.982;2024-02-26T01:28:34;56.20;;;24.70;;
77012;SDS011;67260;53.130;17.982;2024-02-26T01:31:02;65.80;;;27.40;;
77012;SDS011;67260;53.130;17.982;2024-02-26T01:37:29;63.40;;;25.20;;
77012;SDS011;67260;53.130;17.982;2024-02-26T01:40:16;61.60;;;26.40;;
77012;SDS011;67260;53.130;17.982;2024-02-26T01:47:26;53.80;;;24.40;;
77012;SDS011;67260;53.130;17.982;2024-02-26T01:58:21;49.30;;;21.30;;
77012;SDS011;67260;53.130;17.982;2024-02-26T02:11:33;48.60;;;21.00;;
77012;SDS011;67260;53.130;17.982;2024-02-26T02:14:15;47.60;;;22.70;;
77012;SDS011;67260;53.130;17.982;2024-02-26T02:16:57;48.30;;;22.20;;
77012;SDS011;67260;53.130;17.982;2024-02-26T02:41:31;55.00;;;22.10;;
77012;SDS011;67260;53.130;17.982;2024-02-26T02:45:16;52.50;;;21.10;;
77012;SDS011;67260;53.130;17.982;2024-02-26T02:48:02;46.90;;;21.20;;
77012;SDS011;67260;53.130;17.982;2024-02-26T03:04:02;58.60;;;24.70;;
77012;SDS011;67260;53.130;17.982;2024-02-26T03:07:10;55.30;;;22.30;;
77012;SDS011;67260;53.130;17.982;2024-02-26T03:27:28;53.10;;;22.00;;
77012;SDS011;67260;53.130;17.982;2024-02-26T03:30:36;46.10;;;22.50;;
77012;SDS011;67260;53.130;17.982;2024-02-26T03:36:24;52.60;;;21.30;;
77012;SDS011;67260;53.130;17.982;2024-02-26T03:38:59;51.10;;;24.40;;
77012;SDS011;67260;53.130;17.982;2024-02-26T03:45:02;65.50;;;25.50;;
77012;SDS011;67260;53.130;17.982;2024-02-26T03:54:16;57.30;;;24.30;;
77012;SDS011;67260;53.130;17.982;2024-02-26T04:17:15;56.40;;;22.00;;
77012;SDS011;67260;53.130;17.982;2024-02-26T04:22:50;62.90;;;25.30;;
77012;SDS011;67260;53.130;17.982;2024-02-26T04:25:49;65.70;;;26.00;;
77012;SDS011;67260;53.130;17.982;2024-02-26T04:28:32;61.20;;;25.60;;
77012;SDS011;67260;53.130;17.982;2024-02-26T04:31:19;73.80;;;28.80;;
77012;SDS011;67260;53.130;17.982;2024-02-26T04:34:16;64.30;;;23.90;;
77012;SDS011;67260;53.130;17.982;2024-02-26T04:36:51;58.80;;;26.10;;
77012;SDS011;67260;53.130;17.982;2024-02-26T04:50:16;54.80;;;23.90;;
77012;SDS011;67260;53.130;17.982;2024-02-26T04:56:15;45.20;;;22.00;;
77012;SDS011;67260;53.130;17.982;2024-02-26T05:08:11;50.40;;;21.80;;
77012;SDS011;67260;53.130;17.982;2024-02-26T05:10:52;49.90;;;21.00;;
77012;SDS011;67260;53.130;17.982;2024-02-26T05:13:43;41.90;;;20.00;;
77012;SDS011;67260;53.130;17.982;2024-02-26T05:39:47;35.80;;;16.80;;
77012;SDS011;67260;53.130;17.982;2024-02-26T05:42:13;39.80;;;19.70;;
77012;SDS011;67260;53.130;17.982;2024-02-26T05:44:58;37.80;;;18.40;;
77012;SDS011;67260;53.130;17.982;2024-02-26T05:47:26;40.60;;;20.40;;
77012;SDS011;67260;53.130;17.982;2024-02-26T05:49:53;44.70;;;20.50;;
77012;SDS011;67260;53.130;17.982;2024-02-26T05:52:23;37.00;;;19.00;;
77012;SDS011;67260;53.130;17.982;2024-02-26T05:54:50;40.80;;;19.70;;
77012;SDS011;67260;53.130;17.982;2024-02-26T05:57:24;37.30;;;16.70;;
77012;SDS011;67260;53.130;17.982;2024-02-26T05:59:52;43.40;;;21.50;;
77012;SDS011;67260;53.130;17.982;2024-02-26T06:02:31;41.60;;;19.70;;
77012;SDS011;67260;53.130;17.982;2024-02-26T06:04:57;43.40;;;20.40;;
77012;SDS011;67260;53.130;17.982;2024-02-26T06:07:23;47.70;;;20.40;;
77012;SDS011;67260;53.130;17.982;2024-02-26T06:09:53;41.70;;;20.50;;
77012;SDS011;67260;53.130;17.982;2024-02-26T06:12:25;39.50;;;17.70;;
77012;SDS011;67260;53.130;17.982;2024-02-26T06:15:06;45.00;;;19.70;;
77012;SDS011;67260;53.130;17.982;2024-02-26T06:17:39;46.80;;;19.20;;
77012;SDS011;67260;53.130;17.982;2024-02-26T06:33:24;46.60;;;20.30;;
77012;SDS011;67260;53.130;17.982;2024-02-26T06:58:21;47.20;;;22.70;;
77012;SDS011;67260;53.130;17.982;2024-02-26T07:01:05;42.70;;;21.90;;
77012;SDS011;67260;53.130;17.982;2024-02-26T07:03:49;39.60;;;20.30;;
77012;SDS011;67260;53.130;17.982;2024-02-26T07:16:27;37.20;;;19.50;;
77012;SDS011;67260;53.130;17.982;2024-02-26T07:20:10;46.20;;;22.60;;
77012;SDS011;67260;53.130;17.982;2024-02-26T07:26:05;50.10;;;23.40;;
77012;SDS011;67260;53.130;17.982;2024-02-26T07:31:55;47.40;;;23.00;;
77012;SDS011;67260;53.130;17.982;2024-02-26T07:35:44;47.20;;;21.20;;
77012;SDS011;67260;53.130;17.982;2024-02-26T07:41:25;50.10;;;24.40;;
77012;SDS011;67260;53.130;17.982;2024-02-26T07:44:03;50.10;;;25.10;;
77012;SDS011;67260;53.130;17.982;2024-02-26T07:46:34;48.90;;;25.00;;
77012;SDS011;67260;53.130;17.982;2024-02-26T07:49:23;46.50;;;23.90;;
77012;SDS011;67260;53.130;17.982;2024-02-26T07:51:51;56.50;;;26.90;;
77012;SDS011;67260;53.130;17.982;2024-02-26T07:54:21;49.90;;;25.20;;
77012;SDS011;67260;53.130;17.982;2024-02-26T07:56:49;56.10;;;27.80;;
77012;SDS011;67260;53.130;17.982;2024-02-26T07:59:20;64.70;;;32.10;;
77012;SDS011;67260;53.130;17.982;2024-02-26T08:02:01;70.20;;;32.90;;
77012;SDS011;67260;53.130;17.982;2024-02-26T08:04:29;64.20;;;32.40;;
77012;SDS011;67260;53.130;17.982;2024-02-26T08:06:56;62.70;;;29.90;;
77012;SDS011;67260;53.130;17.982;2024-02-26T08:09:22;66.00;;;31.60;;
77012;SDS011;67260;53.130;17.982;2024-02-26T08:11:52;66.10;;;30.40;;
77012;SDS011;67260;53.130;17.982;2024-02-26T08:14:19;59.70;;;31.30;;
77012;SDS011;67260;53.130;17.982;2024-02-26T08:16:45;59.60;;;29.50;;
77012;SDS011;67260;53.130;17.982;2024-02-26T08:19:28;64.40;;;32.40;;
77012;SDS011;67260;53.130;17.982;2024-02-26T08:24:22;59.60;;;33.80;;
77012;SDS011;67260;53.130;17.982;2024-02-26T08:26:58;54.60;;;32.10;;
77012;SDS011;67260;53.130;17.982;2024-02-26T08:29:36;47.30;;;30.90;;
77012;SDS011;67260;53.130;17.982;2024-02-26T08:32:22;44.70;;;27.60;;
77012;SDS011;67260;53.130;17.982;2024-02-26T08:34:51;40.90;;;26.80;;
77012;SDS011;67260;53.130;17.982;2024-02-26T08:42:40;34.50;;;24.60;;
77012;SDS011;67260;53.130;17.982;2024-02-26T08:45:20;33.70;;;22.00;;
77012;SDS011;67260;53.130;17.982;2024-02-26T08:47:56;33.20;;;21.80;;
77012;SDS011;67260;53.130;17.982;2024-02-26T08:53:48;32.50;;;22.90;;
77012;SDS011;67260;53.130;17.982;2024-02-26T08:56:17;34.20;;;25.00;;
77012;SDS011;67260;53.130;17.982;2024-02-26T08:58:47;38.60;;;28.10;;
77012;SDS011;67260;53.130;17.982;2024-02-26T09:02:03;40.80;;;28.70;;
77012;SDS011;67260;53.130;17.982;2024-02-26T09:05:07;29.80;;;23.70;;
77012;SDS011;67260;53.130;17.982;2024-02-26T09:07:41;35.20;;;24.50;;
77012;SDS011;67260;53.130;17.982;2024-02-26T09:10:18;30.60;;;22.50;;
77012;SDS011;67260;53.130;17.982;2024-02-26T09:15:39;32.00;;;23.70;;
77012;SDS011;67260;53.130;17.982;2024-02-26T09:18:06;34.20;;;24.60;;
77012;SDS011;67260;53.130;17.982;2024-02-26T09:20:32;28.70;;;22.20;;
77012;SDS011;67260;53.130;17.982;2024-02-26T09:22:58;29.40;;;22.20;;
77012;SDS011;67260;53.130;17.982;2024-02-26T09:25:24;28.40;;;21.60;;
77012;SDS011;67260;53.130;17.982;2024-02-26T09:27:51;28.80;;;21.00;;
77012;SDS011;67260;53.130;17.982;2024-02-26T09:30:24;27.80;;;21.60;;
77012;SDS011;67260;53.130;17.982;2024-02-26T09:32:50;28.80;;;22.00;;
77012;SDS011;67260;53.130;17.982;2024-02-26T09:35:58;28.80;;;21.60;;
77012;SDS011;67260;53.130;17.982;2024-02-26T09:38:39;31.90;;;21.70;;
77012;SDS011;67260;53.130;17.982;2024-02-26T09:41:30;28.70;;;22.00;;
77012;SDS011;67260;53.130;17.982;2024-02-26T09:47:13;28.40;;;22.00;;
77012;SDS011;67260;53.130;17.982;2024-02-26T09:50:53;28.70;;;21.80;;
77012;SDS011;67260;53.130;17.982;2024-02-26T09:53:21;30.60;;;23.50;;
77012;SDS011;67260;53.130;17.982;2024-02-26T09:56:11;32.30;;;24.50;;
77012;SDS011;67260;53.130;17.982;2024-02-26T10:00:11;29.80;;;21.70;;
77012;SDS011;67260;53.130;17.982;2024-02-26T10:04:04;28.80;;;20.20;;
77012;SDS011;67260;53.130;17.982;2024-02-26T10:09:58;24.80;;;18.80;;
77012;SDS011;67260;53.130;17.982;2024-02-26T10:16:11;25.60;;;18.80;;
77012;SDS011;67260;53.130;17.982;2024-02-26T10:22:27;24.20;;;18.20;;
77012;SDS011;67260;53.130;17.982;2024-02-26T10:29:45;28.30;;;19.90;;
77012;SDS011;67260;53.130;17.982;2024-02-26T10:35:13;45.10;;;24.80;;
77012;SDS011;67260;53.130;17.982;2024-02-26T10:41:06;35.50;;;19.80;;
77012;SDS011;67260;53.130;17.982;2024-02-26T10:49:46;55.20;;;26.40;;
77012;SDS011;67260;53.130;17.982;2024-02-26T10:56:17;37.40;;;18.80;;
77012;SDS011;67260;53.130;17.982;2024-02-26T11:04:25;39.90;;;20.40;;
77012;SDS011;67260;53.130;17.982;2024-02-26T11:07:12;47.50;;;21.20;;
77012;SDS011;67260;53.130;17.982;2024-02-26T11:10:04;35.10;;;18.40;;
77012;SDS011;67260;53.130;17.982;2024-02-26T11:16:18;36.30;;;18.40;;
77012;SDS011;67260;53.130;17.982;2024-02-26T11:18:48;38.20;;;20.70;;
77012;SDS011;67260;53.130;17.982;2024-02-26T11:24:12;31.20;;;16.40;;
77012;SDS011;67260;53.130;17.982;2024-02-26T11:36:34;25.10;;;14.20;;
77012;SDS011;67260;53.130;17.982;2024-02-26T11:41:26;29.30;;;15.00;;
77012;SDS011;67260;53.130;17.982;2024-02-26T11:47:22;30.30;;;17.40;;
77012;SDS011;67260;53.130;17.982;2024-02-26T11:49:48;26.20;;;14.20;;
77012;SDS011;67260;53.130;17.982;2024-02-26T11:54:56;26.30;;;14.20;;
77012;SDS011;67260;53.130;17.982;2024-02-26T12:37:47;21.50;;;12.30;;
77012;SDS011;67260;53.130;17.982;2024-02-26T12:48:51;21.80;;;10.40;;
77012;SDS011;67260;53.130;17.982;2024-02-26T12:55:46;16.30;;;9.00;;
77012;SDS011;67260;53.130;17.982;2024-02-26T12:58:16;13.70;;;8.40;;
77012;SDS011;67260;53.130;17.982;2024-02-26T13:01:17;15.50;;;8.90;;
77012;SDS011;67260;53.130;17.982;2024-02-26T13:10:04;19.00;;;10.40;;
77012;SDS011;67260;53.130;17.982;2024-02-26T13:12:30;18.80;;;9.60;;
77012;SDS011;67260;53.130;17.982;2024-02-26T13:14:59;20.30;;;10.10;;
77012;SDS011;67260;53.130;17.982;2024-02-26T13:17:51;18.60;;;10.50;;
77012;SDS011;67260;53.130;17.982;2024-02-26T13:20:31;19.10;;;11.40;;
77012;SDS011;67260;53.130;17.982;2024-02-26T13:23:18;17.80;;;10.00;;
77012;SDS011;67260;53.130;17.982;2024-02-26T13:25:49;17.00;;;9.90;;
77012;SDS011;67260;53.130;17.982;2024-02-26T13:28:22;18.20;;;10.20;;
77012;SDS011;67260;53.130;17.982;2024-02-26T13:30:53;16.40;;;9.70;;
77012;SDS011;67260;53.130;17.982;2024-02-26T13:33:32;17.70;;;9.70;;
77012;SDS011;67260;53.130;17.982;2024-02-26T13:35:58;18.70;;;10.30;;
77012;SDS011;67260;53.130;17.982;2024-02-26T13:38:26;16.20;;;9.80;;
77012;SDS011;67260;53.130;17.982;2024-02-26T13:40:57;17.90;;;10.30;;
77012;SDS011;67260;53.130;17.982;2024-02-26T13:43:23;17.00;;;10.40;;
77012;SDS011;67260;53.130;17.982;2024-02-26T13:45:49;18.80;;;10.00;;
77012;SDS011;67260;53.130;17.982;2024-02-26T13:48:16;16.20;;;10.20;;
77012;SDS011;67260;53.130;17.982;2024-02-26T13:50:42;19.00;;;10.90;;
77012;SDS011;67260;53.130;17.982;2024-02-26T13:56:42;17.50;;;10.20;;
77012;SDS011;67260;53.130;17.982;2024-02-26T14:00:15;18.70;;;10.00;;
77012;SDS011;67260;53.130;17.982;2024-02-26T14:06:05;19.10;;;11.10;;
77012;SDS011;67260;53.130;17.982;2024-02-26T14:14:50;17.70;;;11.20;;
77012;SDS011;67260;53.130;17.982;2024-02-26T14:24:19;21.40;;;12.10;;
77012;SDS011;67260;53.130;17.982;2024-02-26T14:27:34;22.10;;;13.10;;
77012;SDS011;67260;53.130;17.982;2024-02-26T14:30:09;21.60;;;12.70;;
77012;SDS011;67260;53.130;17.982;2024-02-26T14:32:52;20.40;;;12.40;;
77012;SDS011;67260;53.130;17.982;2024-02-26T14:35:22;21.80;;;12.70;;
77012;SDS011;67260;53.130;17.982;2024-02-26T14:38:10;21.10;;;12.20;;
77012;SDS011;67260;53.130;17.982;2024-02-26T14:40:38;20.60;;;11.80;;
77012;SDS011;67260;53.130;17.982;2024-02-26T14:47:06;23.40;;;13.30;;
77012;SDS011;67260;53.130;17.982;2024-02-26T14:52:56;23.40;;;12.30;;
77012;SDS011;67260;53.130;17.982;2024-02-26T14:55:22;18.30;;;11.10;;
77012;SDS011;67260;53.130;17.982;2024-02-26T14:57:51;19.10;;;10.80;;
77012;SDS011;67260;53.130;17.982;2024-02-26T15:00:40;18.50;;;10.70;;
77012;SDS011;67260;53.130;17.982;2024-02-26T15:03:22;22.10;;;11.00;;
77012;SDS011;67260;53.130;17.982;2024-02-26T15:06:04;18.70;;;10.50;;
77012;SDS011;67260;53.130;17.982;2024-02-26T15:08:47;19.50;;;9.90;;
77012;SDS011;67260;53.130;17.982;2024-02-26T15:15:16;20.90;;;10.50;;
77012;SDS011;67260;53.130;17.982;2024-02-26T15:17:53;16.30;;;9.80;;
77012;SDS011;67260;53.130;17.982;2024-02-26T15:20:39;20.00;;;10.90;;
77012;SDS011;67260;53.130;17.982;2024-02-26T15:23:38;20.00;;;10.40;;
77012;SDS011;67260;53.130;17.982;2024-02-26T15:26:38;21.10;;;11.50;;
77012;SDS011;67260;53.130;17.982;2024-02-26T15:32:41;18.20;;;10.20;;
77012;SDS011;67260;53.130;17.982;2024-02-26T15:41:34;22.90;;;12.20;;
77012;SDS011;67260;53.130;17.982;2024-02-26T15:47:19;24.70;;;12.60;;
77012;SDS011;67260;53.130;17.982;2024-02-26T16:24:27;62.10;;;30.70;;
77012;SDS011;67260;53.130;17.982;2024-02-26T16:27:17;113.60;;;67.60;;
77012;SDS011;67260;53.130;17.982;2024-02-26T16:29:43;61.60;;;36.40;;
77012;SDS011;67260;53.130;17.982;2024-02-26T16:35:03;43.90;;;22.90;;
77012;SDS011;67260;53.130;17.982;2024-02-26T16:37:30;37.60;;;19.60;;
77012;SDS011;67260;53.130;17.982;2024-02-26T16:40:00;52.90;;;29.10;;
77012;SDS011;67260;53.130;17.982;2024-02-26T16:42:30;41.30;;;23.30;;
77012;SDS011;67260;53.130;17.982;2024-02-26T16:44:57;37.50;;;20.70;;
77012;SDS011;67260;53.130;17.982;2024-02-26T16:47:24;41.80;;;23.30;;
77012;SDS011;67260;53.130;17.982;2024-02-26T16:49:51;43.00;;;24.20;;
77012;SDS011;67260;53.130;17.982;2024-02-26T16:54:43;29.40;;;16.80;;
77012;SDS011;67260;53.130;17.982;2024-02-26T16:57:09;31.50;;;17.60;;
77012;SDS011;67260;53.130;17.982;2024-02-26T16:59:36;38.00;;;21.10;;
77012;SDS011;67260;53.130;17.982;2024-02-26T17:02:03;31.30;;;18.20;;
77012;SDS011;67260;53.130;17.982;2024-02-26T17:04:30;33.60;;;18.60;;
77012;SDS011;67260;53.130;17.982;2024-02-26T17:06:56;33.20;;;17.80;;
77012;SDS011;67260;53.130;17.982;2024-02-26T17:09:23;32.70;;;17.60;;
77012;SDS011;67260;53.130;17.982;2024-02-26T17:11:49;29.70;;;15.10;;
77012;SDS011;67260;53.130;17.982;2024-02-26T17:16:42;28.70;;;15.90;;
77012;SDS011;67260;53.130;17.982;2024-02-26T17:19:08;41.80;;;24.60;;
77012;SDS011;67260;53.130;17.982;2024-02-26T17:21:34;43.00;;;20.20;;
77012;SDS011;67260;53.130;17.982;2024-02-26T17:24:01;33.00;;;17.80;;
77012;SDS011;67260;53.130;17.982;2024-02-26T17:26:27;36.40;;;18.70;;
77012;SDS011;67260;53.130;17.982;2024-02-26T17:28:55;38.70;;;23.40;;
77012;SDS011;67260;53.130;17.982;2024-02-26T17:31:22;34.70;;;17.80;;
77012;SDS011;67260;53.130;17.982;2024-02-26T17:36:17;34.90;;;18.50;;
77012;SDS011;67260;53.130;17.982;2024-02-26T17:38:43;37.80;;;21.50;;
77012;SDS011;67260;53.130;17.982;2024-02-26T17:41:11;35.60;;;20.80;;
77012;SDS011;67260;53.130;17.982;2024-02-26T17:43:38;34.60;;;19.40;;
77012;SDS011;67260;53.130;17.982;2024-02-26T17:46:04;44.80;;;23.40;;
77012;SDS011;67260;53.130;17.982;2024-02-26T17:48:30;42.10;;;22.50;;
77012;SDS011;67260;53.130;17.982;2024-02-26T17:50:56;37.40;;;21.20;;
77012;SDS011;67260;53.130;17.982;2024-02-26T17:53:22;36.60;;;20.20;;
77012;SDS011;67260;53.130;17.982;2024-02-26T17:55:49;41.80;;;25.20;;
77012;SDS011;67260;53.130;17.982;2024-02-26T18:07:31;35.00;;;19.30;;
77012;SDS011;67260;53.130;17.982;2024-02-26T18:09:57;33.20;;;18.60;;
77012;SDS011;67260;53.130;17.982;2024-02-26T18:12:23;36.30;;;20.90;;
77012;SDS011;67260;53.130;17.982;2024-02-26T18:14:53;36.40;;;20.80;;
77012;SDS011;67260;53.130;17.982;2024-02-26T18:17:48;37.30;;;19.00;;
77012;SDS011;67260;53.130;17.982;2024-02-26T18:20:27;38.30;;;20.20;;
77012;SDS011;67260;53.130;17.982;2024-02-26T18:23:30;45.90;;;21.00;;
77012;SDS011;67260;53.130;17.982;2024-02-26T18:26:56;38.10;;;21.10;;
77012;SDS011;67260;53.130;17.982;2024-02-26T18:30:04;35.10;;;19.20;;
77012;SDS011;67260;53.130;17.982;2024-02-26T18:33:28;32.20;;;18.30;;
77012;SDS011;67260;53.130;17.982;2024-02-26T18:36:29;34.30;;;18.30;;
77012;SDS011;67260;53.130;17.982;2024-02-26T18:43:01;30.80;;;17.50;;
77012;SDS011;67260;53.130;17.982;2024-02-26T18:46:26;33.70;;;17.80;;
77012;SDS011;67260;53.130;17.982;2024-02-26T18:49:11;37.40;;;21.30;;
77012;SDS011;67260;53.130;17.982;2024-02-26T18:52:02;35.20;;;20.40;;
77012;SDS011;67260;53.130;17.982;2024-02-26T18:54:44;42.50;;;21.40;;
77012;SDS011;67260;53.130;17.982;2024-02-26T18:57:16;37.20;;;18.70;;
77012;SDS011;67260;53.130;17.982;2024-02-26T18:59:42;42.70;;;20.60;;
77012;SDS011;67260;53.130;17.982;2024-02-26T19:02:12;38.60;;;20.40;;
77012;SDS011;67260;53.130;17.982;2024-02-26T19:05:32;37.60;;;20.80;;
77012;SDS011;67260;53.130;17.982;2024-02-26T19:11:30;37.70;;;19.60;;
77012;SDS011;67260;53.130;17.982;2024-02-26T19:14:00;34.60;;;20.50;;
77012;SDS011;67260;53.130;17.982;2024-02-26T19:16:42;31.10;;;17.70;;
77012;SDS011;67260;53.130;17.982;2024-02-26T19:19:11;33.10;;;17.20;;
77012;SDS011;67260;53.130;17.982;2024-02-26T19:21:37;33.50;;;18.50;;
77012;SDS011;67260;53.130;17.982;2024-02-26T19:24:03;33.70;;;18.80;;
77012;SDS011;67260;53.130;17.982;2024-02-26T19:26:31;31.80;;;17.60;;
77012;SDS011;67260;53.130;17.982;2024-02-26T19:28:59;32.30;;;17.40;;
77012;SDS011;67260;53.130;17.982;2024-02-26T19:31:26;34.10;;;18.50;;
77012;SDS011;67260;53.130;17.982;2024-02-26T19:33:55;33.70;;;19.50;;
77012;SDS011;67260;53.130;17.982;2024-02-26T19:36:33;29.80;;;17.10;;
77012;SDS011;67260;53.130;17.982;2024-02-26T19:47:08;35.60;;;19.70;;
77012;SDS011;67260;53.130;17.982;2024-02-26T19:49:34;30.20;;;17.20;;
77012;SDS011;67260;53.130;17.982;2024-02-26T19:52:00;31.50;;;18.10;;
77012;SDS011;67260;53.130;17.982;2024-02-26T19:54:27;32.40;;;18.30;;
77012;SDS011;67260;53.130;17.982;2024-02-26T19:56:59;33.30;;;18.00;;
77012;SDS011;67260;53.130;17.982;2024-02-26T19:59:30;30.50;;;17.40;;
77012;SDS011;67260;53.130;17.982;2024-02-26T20:02:00;31.60;;;17.60;;
77012;SDS011;67260;53.130;17.982;2024-02-26T20:04:26;31.10;;;18.40;;
77012;SDS011;67260;53.130;17.982;2024-02-26T20:06:53;32.70;;;17.30;;
77012;SDS011;67260;53.130;17.982;2024-02-26T20:09:20;35.70;;;18.90;;
77012;SDS011;67260;53.130;17.982;2024-02-26T20:11:48;34.80;;;18.50;;
77012;SDS011;67260;53.130;17.982;2024-02-26T20:14:15;36.50;;;19.70;;
77012;SDS011;67260;53.130;17.982;2024-02-26T20:16:45;34.90;;;19.30;;
77012;SDS011;67260;53.130;17.982;2024-02-26T20:22:04;34.60;;;19.40;;
77012;SDS011;67260;53.130;17.982;2024-02-26T20:25:07;35.00;;;18.60;;
77012;SDS011;67260;53.130;17.982;2024-02-26T20:27:46;35.20;;;19.50;;
77012;SDS011;67260;53.130;17.982;2024-02-26T20:30:27;35.80;;;19.80;;
77012;SDS011;67260;53.130;17.982;2024-02-26T20:33:09;38.90;;;20.40;;
77012;SDS011;67260;53.130;17.982;2024-02-26T20:39:05;36.90;;;20.00;;
77012;SDS011;67260;53.130;17.982;2024-02-26T20:41:45;35.10;;;19.10;;
77012;SDS011;67260;53.130;17.982;2024-02-26T20:44:27;33.80;;;18.90;;
77012;SDS011;67260;53.130;17.982;2024-02-26T20:53:48;36.90;;;19.90;;
77012;SDS011;67260;53.130;17.982;2024-02-26T20:56:29;33.10;;;19.10;;
77012;SDS011;67260;53.130;17.982;2024-02-26T21:03:21;35.60;;;19.70;;
77012;SDS011;67260;53.130;17.982;2024-02-26T21:06:03;37.40;;;19.20;;
77012;SDS011;67260;53.130;17.982;2024-02-26T21:08:33;39.70;;;23.20;;
77012;SDS011;67260;53.130;17.982;2024-02-26T21:14:06;33.90;;;19.80;;
77012;SDS011;67260;53.130;17.982;2024-02-26T21:26:45;39.30;;;21.20;;
77012;SDS011;67260;53.130;17.982;2024-02-26T21:29:43;39.20;;;20.60;;
77012;SDS011;67260;53.130;17.982;2024-02-26T21:34:00;37.30;;;20.40;;
77012;SDS011;67260;53.130;17.982;2024-02-26T21:39:51;34.70;;;21.30;;
77012;SDS011;67260;53.130;17.982;2024-02-26T21:52:35;38.00;;;21.30;;
77012;SDS011;67260;53.130;17.982;2024-02-26T21:55:14;41.10;;;24.20;;
77012;SDS011;67260;53.130;17.982;2024-02-26T21:58:40;39.20;;;21.30;;
77012;SDS011;67260;53.130;17.982;2024-02-26T22:02:12;38.50;;;21.50;;
77012;SDS011;67260;53.130;17.982;2024-02-26T22:04:39;39.60;;;22.70;;
77012;SDS011;67260;53.130;17.982;2024-02-26T22:09:56;42.70;;;23.30;;
77012;SDS011;67260;53.130;17.982;2024-02-26T22:12:23;44.50;;;23.60;;
77012;SDS011;67260;53.130;17.982;2024-02-26T22:14:52;44.70;;;26.00;;
77012;SDS011;67260;53.130;17.982;2024-02-26T22:17:18;42.30;;;22.90;;
77012;SDS011;67260;53.130;17.982;2024-02-26T22:19:46;43.30;;;24.30;;
77012;SDS011;67260;53.130;17.982;2024-02-26T22:24:38;43.80;;;23.00;;
77012;SDS011;67260;53.130;17.982;2024-02-26T22:27:05;41.90;;;24.00;;
77012;SDS011;67260;53.130;17.982;2024-02-26T22:31:57;37.60;;;21.00;;
77012;SDS011;67260;53.130;17.982;2024-02-26T22:34:25;47.10;;;25.40;;
77012;SDS011;67260;53.130;17.982;2024-02-26T22:36:52;41.40;;;23.20;;
77012;SDS011;67260;53.130;17.982;2024-02-26T22:39:18;41.80;;;23.30;;
77012;SDS011;67260;53.130;17.982;2024-02-26T22:41:44;43.20;;;23.20;;
77012;SDS011;67260;53.130;17.982;2024-02-26T22:44:11;38.70;;;22.50;;
77012;SDS011;67260;53.130;17.982;2024-02-26T22:46:41;40.10;;;22.30;;
77012;SDS011;67260;53.130;17.982;2024-02-26T22:52:24;38.10;;;21.70;;
77012;SDS011;67260;53.130;17.982;2024-02-26T22:54:51;37.80;;;21.70;;
77012;SDS011;67260;53.130;17.982;2024-02-26T22:57:17;43.80;;;22.70;;
77012;SDS011;67260;53.130;17.982;2024-02-26T22:59:48;38.90;;;22.70;;
77012;SDS011;67260;53.130;17.982;2024-02-26T23:02:17;42.60;;;23.90;;
77012;SDS011;67260;53.130;17.982;2024-02-26T23:07:09;40.10;;;22.80;;
77012;SDS011;67260;53.130;17.982;2024-02-26T23:09:35;41.00;;;23.80;;
77012;SDS011;67260;53.130;17.982;2024-02-26T23:12:01;40.60;;;22.10;;
77012;SDS011;67260;53.130;17.982;2024-02-26T23:14:28;42.50;;;23.20;;
77012;SDS011;67260;53.130;17.982;2024-02-26T23:16:54;39.70;;;24.10;;
77012;SDS011;67260;53.130;17.982;2024-02-26T23:19:20;42.00;;;22.60;;
77012;SDS011;67260;53.130;17.982;2024-02-26T23:21:46;40.20;;;22.70;;
77012;SDS011;67260;53.130;17.982;2024-02-26T23:24:12;39.30;;;22.50;;
77012;SDS011;67260;53.130;17.982;2024-02-26T23:26:39;41.40;;;23.60;;
77012;SDS011;67260;53.130;17.982;2024-02-26T23:29:06;40.40;;;23.90;;
77012;SDS011;67260;53.130;17.982;2024-02-26T23:31:31;40.20;;;22.90;;
77012;SDS011;67260;53.130;17.982;2024-02-26T23:33:58;42.30;;;22.70;;
77012;SDS011;67260;53.130;17.982;2024-02-26T23:36:24;41.10;;;23.30;;
77012;SDS011;67260;53.130;17.982;2024-02-26T23:38:58;42.00;;;22.70;;
77012;SDS011;67260;53.130;17.982;2024-02-26T23:41:25;43.90;;;23.80;;
77012;SDS011;67260;53.130;17.982;2024-02-26T23:43:56;44.90;;;24.40;;
77012;SDS011;67260;53.130;17.982;2024-02-26T23:46:22;44.90;;;24.20;;
77012;SDS011;67260;53.130;17.982;2024-02-26T23:48:51;43.10;;;23.60;;
77012;SDS011;67260;53.130;17.982;2024-02-26T23:51:18;44.60;;;23.90;;
77012;SDS011;67260;53.130;17.982;2024-02-26T23:53:50;43.50;;;25.60;;
77012;SDS011;67260;53.130;17.982;2024-02-26T23:56:16;46.90;;;26.40;;
77012;SDS011;67260;53.130;17.982;2024-02-26T23:58:42;47.00;;;26.00;;
